Time;durP1;ratioP1;P1;durP2;ratioP2;P2;SDS_P1;SDS_P2;PMS_P1;PMS_P2;Temp;Humidity;BMP_temperature;BMP_pressure;BME280_temperature;BME280_humidity;BME280_pressure;Samples;Min_cycle;Max_cycle;Signal;HPM_P1;HPM_P2
2023/08/28 00:01:55;;;;;;;4.88;3.90;;;;;;;22.93;43.57;93587.03;5013903;28;20044;-79
2023/08/28 00:04:20;;;;;;;7.32;4.13;;;;;;;22.87;43.95;93587.88;5011788;28;20537;-79
2023/08/28 00:06:45;;;;;;;6.45;4.07;;;;;;;22.83;43.69;93582.41;5014604;28;20108;-79
2023/08/28 00:09:11;;;;;;;5.05;3.97;;;;;;;22.77;43.43;93570.47;5011958;28;20041;-80
2023/08/28 00:11:37;;;;;;;6.15;4.18;;;;;;;22.75;43.64;93575.50;5014405;28;20037;-79
2023/08/28 00:14:02;;;;;;;6.05;4.05;;;;;;;22.74;43.96;93576.66;5012119;28;20617;-80
2023/08/28 00:16:27;;;;;;;7.20;4.38;;;;;;;22.52;43.90;93561.69;5011189;28;20626;-78
2023/08/28 00:18:53;;;;;;;4.88;4.32;;;;;;;22.61;44.30;93575.56;5011774;28;20076;-80
2023/08/28 00:21:18;;;;;;;5.55;4.28;;;;;;;22.58;44.17;93576.38;5009983;28;20025;-80
2023/08/28 00:23:44;;;;;;;9.18;4.53;;;;;;;22.51;44.16;93577.19;5013489;28;20422;-80
2023/08/28 00:26:09;;;;;;;10.05;4.40;;;;;;;22.52;44.28;93588.78;5012628;28;20098;-79
2023/08/28 00:28:34;;;;;;;5.53;4.50;;;;;;;22.53;44.30;93584.91;5011318;28;20049;-79
2023/08/28 00:31:05;;;;;;;6.55;4.55;;;;;;;22.36;44.44;93561.38;5012384;28;20091;-80
2023/08/28 00:33:30;;;;;;;5.40;3.80;;;;;;;22.32;44.29;93557.91;5018238;28;20021;-80
2023/08/28 00:35:56;;;;;;;7.40;4.03;;;;;;;22.34;44.87;93571.84;5011252;28;20060;-79
2023/08/28 00:38:21;;;;;;;6.10;5.00;;;;;;;22.33;44.68;93578.41;5013357;28;20034;-79
2023/08/28 00:40:46;;;;;;;4.75;4.25;;;;;;;22.32;44.75;93579.56;5011360;28;20442;-77
2023/08/28 00:43:12;;;;;;;10.13;4.80;;;;;;;22.32;45.00;93591.19;5011560;28;20038;-80
2023/08/28 00:45:41;;;;;;;7.65;4.40;;;;;;;22.27;45.27;93595.06;5010538;28;20037;-79
2023/08/28 00:48:07;;;;;;;9.32;5.00;;;;;;;22.18;45.02;93591.97;5013878;28;20052;-79
2023/08/28 00:50:33;;;;;;;5.35;4.85;;;;;;;22.20;45.00;93583.44;5018776;28;20030;-80
2023/08/28 00:52:58;;;;;;;6.43;4.57;;;;;;;22.20;45.02;93589.63;5014529;28;20558;-79
2023/08/28 00:55:24;;;;;;;9.27;5.32;;;;;;;22.27;43.87;93595.06;5017260;28;20061;-79
2023/08/28 00:57:49;;;;;;;7.57;4.90;;;;;;;22.21;44.66;93591.22;5013100;28;20022;-79
2023/08/28 01:00:15;;;;;;;8.27;4.95;;;;;;;22.18;44.81;93597.41;5011619;28;20029;-79
2023/08/28 01:02:40;;;;;;;8.07;5.35;;;;;;;22.10;44.52;93568.00;5013638;28;20552;-79
2023/08/28 01:05:07;;;;;;;6.18;4.60;;;;;;;22.15;44.59;93573.00;5011003;28;20077;-79
2023/08/28 01:07:40;;;;;;;8.23;5.63;;;;;;;22.15;44.86;93570.31;5011419;28;20130;-79
2023/08/28 01:10:44;;;;;;;6.15;5.15;;;;;;;22.16;44.29;93572.63;5017897;28;20026;-80
2023/08/28 01:13:21;;;;;;;7.78;4.72;;;;;;;22.26;44.11;93579.19;5010315;28;20034;-79
2023/08/28 01:15:48;;;;;;;10.63;6.00;;;;;;;22.25;44.07;93578.44;5009938;28;20055;-79
2023/08/28 01:18:15;;;;;;;6.82;4.88;;;;;;;22.23;44.35;93585.41;5010628;28;20026;-79
2023/08/28 01:20:42;;;;;;;5.70;5.03;;;;;;;22.15;44.82;93581.91;5007959;28;20405;-80
2023/08/28 01:23:14;;;;;;;8.10;5.28;;;;;;;22.15;44.84;93581.91;5009367;28;20037;-79
2023/08/28 01:25:40;;;;;;;7.00;5.43;;;;;;;22.04;44.91;93575.78;5012881;28;20136;-80
2023/08/28 01:28:05;;;;;;;10.00;5.13;;;;;;;22.00;44.70;93563.41;5012984;28;20120;-79
2023/08/28 01:30:31;;;;;;;6.97;5.00;;;;;;;22.04;44.80;93573.06;5012759;28;20046;-79
2023/08/28 01:32:56;;;;;;;12.50;5.20;;;;;;;22.05;44.83;93580.00;5009370;28;20129;-79
2023/08/28 01:35:25;;;;;;;9.80;5.15;;;;;;;21.87;44.58;93549.50;5009863;28;20060;-79
2023/08/28 01:37:56;;;;;;;5.93;4.97;;;;;;;22.02;44.95;93571.91;5012378;28;20057;-80
2023/08/28 01:40:27;;;;;;;6.15;4.97;;;;;;;21.90;45.07;93556.84;5009431;28;20541;-80
2023/08/28 01:42:53;;;;;;;8.30;5.20;;;;;;;22.02;44.80;93569.97;5018687;28;20053;-80
2023/08/28 01:45:20;;;;;;;6.15;4.97;;;;;;;21.98;44.60;93560.31;5013554;28;20033;-79
2023/08/28 01:47:45;;;;;;;5.80;4.75;;;;;;;21.98;44.77;93552.97;5010024;28;20029;-80
2023/08/28 01:50:11;;;;;;;8.45;4.65;;;;;;;21.99;44.80;93567.28;5013438;28;20502;-78
2023/08/28 01:52:36;;;;;;;5.63;4.93;;;;;;;21.94;44.92;93560.31;5012835;28;20409;-79
2023/08/28 01:55:01;;;;;;;5.82;4.53;;;;;;;21.94;44.85;93554.91;5010773;28;20049;-79
2023/08/28 01:57:27;;;;;;;7.07;5.07;;;;;;;21.90;44.47;93554.16;5013422;28;20571;-79
2023/08/28 01:59:52;;;;;;;7.82;5.00;;;;;;;21.84;44.81;93545.66;5011695;28;20042;-79
2023/08/28 02:02:17;;;;;;;8.75;5.20;;;;;;;21.89;44.77;93549.91;5015029;28;20049;-80
2023/08/28 02:04:43;;;;;;;9.52;4.97;;;;;;;21.80;44.49;93544.88;5013681;28;20047;-80
2023/08/28 02:07:08;;;;;;;11.60;4.68;;;;;;;21.88;44.33;93548.34;5017414;28;20066;-80
2023/08/28 02:09:34;;;;;;;6.70;4.80;;;;;;;21.93;44.38;93556.06;5015822;28;20026;-79
2023/08/28 02:11:59;;;;;;;8.98;5.10;;;;;;;21.80;44.88;93546.81;5013321;28;20109;-80
2023/08/28 02:14:24;;;;;;;6.20;4.32;;;;;;;21.80;44.77;93549.53;5015734;28;20040;-79
2023/08/28 02:16:50;;;;;;;5.18;4.53;;;;;;;21.76;44.69;93548.75;5014320;28;20524;-79
2023/08/28 02:19:15;;;;;;;5.22;4.32;;;;;;;21.83;44.85;93554.16;5014174;28;20118;-79
2023/08/28 02:21:40;;;;;;;11.55;5.28;;;;;;;21.81;44.70;93548.34;5014670;28;20032;-79
2023/08/28 02:24:07;;;;;;;6.47;4.55;;;;;;;21.78;44.51;93541.03;5018511;28;20427;-80
2023/08/28 02:26:32;;;;;;;7.10;4.75;;;;;;;21.69;44.35;93533.31;5015713;28;21035;-79
2023/08/28 02:28:58;;;;;;;10.27;4.93;;;;;;;21.81;44.55;93545.63;5014738;28;20049;-79
2023/08/28 02:31:23;;;;;;;12.82;5.47;;;;;;;21.77;44.64;93545.66;5014716;28;20459;-80
2023/08/28 02:33:48;;;;;;;7.45;3.75;;;;;;;21.67;44.90;93534.84;5022917;28;20104;-79
2023/08/28 02:36:14;;;;;;;7.75;4.53;;;;;;;21.58;44.99;93537.19;5014677;28;20109;-79
2023/08/28 02:38:39;;;;;;;5.35;4.65;;;;;;;21.53;45.39;93534.84;5011771;28;20061;-80
2023/08/28 02:41:07;;;;;;;4.93;4.43;;;;;;;21.43;45.58;93531.75;5017631;28;20030;-79
2023/08/28 02:43:33;;;;;;;8.23;4.60;;;;;;;21.41;45.50;93538.75;5017888;28;20398;-80
2023/08/28 02:45:58;;;;;;;8.82;4.25;;;;;;;21.15;45.85;93509.38;5015289;28;20072;-79
2023/08/28 02:48:24;;;;;;;7.70;4.65;;;;;;;21.29;45.84;93537.19;5017858;28;20083;-79
2023/08/28 02:50:49;;;;;;;10.38;4.25;;;;;;;21.24;46.06;93542.97;5015229;28;20041;-79
2023/08/28 02:53:15;;;;;;;6.32;4.30;;;;;;;21.29;45.46;93531.00;5014667;28;20103;-79
2023/08/28 02:55:41;;;;;;;7.15;4.10;;;;;;;21.29;45.64;93531.00;5014099;28;20728;-79
2023/08/28 02:58:07;;;;;;;7.70;4.40;;;;;;;21.28;45.63;93538.34;5014110;28;20022;-78
2023/08/28 03:00:37;;;;;;;7.13;4.75;;;;;;;21.28;45.73;93541.03;5013928;28;20025;-80
2023/08/28 03:03:03;;;;;;;6.43;4.28;;;;;;;21.27;45.67;93539.50;5014139;28;20570;-79
2023/08/28 03:05:29;;;;;;;5.20;4.35;;;;;;;21.10;45.74;93513.25;5015320;28;20050;-79
2023/08/28 03:07:54;;;;;;;6.22;4.88;;;;;;;20.76;46.04;93461.47;5013720;28;20042;-80
2023/08/28 03:10:20;;;;;;;6.00;4.13;;;;;;;21.17;45.53;93539.53;5014629;28;20117;-80
2023/08/28 03:12:45;;;;;;;7.38;4.40;;;;;;;21.20;45.76;93539.50;5017189;28;20079;-79
2023/08/28 03:15:11;;;;;;;13.07;4.38;;;;;;;21.15;45.72;93531.78;5012689;28;20060;-79
2023/08/28 03:17:36;;;;;;;5.75;5.15;;;;;;;21.19;45.84;93546.06;5014477;28;20087;-77
2023/08/28 03:20:03;;;;;;;5.80;4.72;;;;;;;21.06;46.06;93533.31;5014552;28;20049;-79
2023/08/28 03:22:29;;;;;;;7.32;4.97;;;;;;;21.18;46.22;93554.56;5012865;28;20499;-80
2023/08/28 03:24:54;;;;;;;8.23;5.15;;;;;;;21.13;46.07;93542.19;5014831;28;20034;-79
2023/08/28 03:27:21;;;;;;;6.97;5.28;;;;;;;21.15;46.03;93542.59;5011205;28;20025;-79
2023/08/28 03:29:46;;;;;;;6.28;4.85;;;;;;;21.14;46.53;93545.69;5014736;28;20046;-80
2023/08/28 03:32:11;;;;;;;9.70;5.35;;;;;;;21.07;46.31;93530.22;5013087;28;20378;-79
2023/08/28 03:34:37;;;;;;;5.35;4.85;;;;;;;21.06;45.91;93528.69;5010126;28;20377;-80
2023/08/28 03:37:02;;;;;;;7.78;4.68;;;;;;;21.16;45.96;93533.34;5015328;28;20033;-79
2023/08/28 03:39:28;;;;;;;7.53;6.28;;;;;;;21.00;46.51;93531.00;5014651;28;20086;-78
2023/08/28 03:41:53;;;;;;;10.10;5.55;;;;;;;20.85;46.69;93513.19;5016442;28;20030;-80
2023/08/28 03:44:19;;;;;;;8.25;4.25;;;;;;;20.86;46.62;93513.97;5013433;28;20033;-79
2023/08/28 03:46:44;;;;;;;9.43;4.95;;;;;;;20.95;46.98;93533.31;5015264;28;20030;-78
2023/08/28 03:49:09;;;;;;;4.68;4.18;;;;;;;20.88;46.90;93522.47;5013717;28;20043;-79
2023/08/28 03:51:35;;;;;;;9.10;5.43;;;;;;;20.79;46.95;93524.75;5012925;28;20168;-79
2023/08/28 03:54:02;;;;;;;9.15;4.65;;;;;;;20.74;47.17;93522.44;5013996;28;20592;-80
2023/08/28 03:56:29;;;;;;;9.30;5.63;;;;;;;20.66;47.33;93520.88;5013859;28;20049;-79
2023/08/28 03:58:55;;;;;;;4.82;4.30;;;;;;;20.72;47.52;93535.56;5012263;28;20075;-79
2023/08/28 04:01:20;;;;;;;6.47;4.95;;;;;;;20.71;47.49;93534.81;5014190;28;20105;-79
2023/08/28 04:03:45;;;;;;;11.75;5.10;;;;;;;20.55;47.65;93515.47;5012834;28;20018;-78
2023/08/28 04:06:11;;;;;;;8.05;5.03;;;;;;;20.60;47.79;93518.56;5013238;28;20471;-79
2023/08/28 04:08:36;;;;;;;20.42;6.47;;;;;;;20.75;47.94;93534.78;5012669;28;20073;-79
2023/08/28 04:11:02;;;;;;;17.88;6.53;;;;;;;20.74;47.61;93538.66;5014559;28;20034;-79
2023/08/28 04:13:27;;;;;;;15.20;5.72;;;;;;;20.65;47.81;93516.63;5011226;28;20041;-79
2023/08/28 04:15:53;;;;;;;24.48;6.70;;;;;;;20.67;48.29;93523.22;5012262;28;20033;-79
2023/08/28 04:18:18;;;;;;;21.83;6.15;;;;;;;20.70;48.32;93529.78;5011822;28;20032;-80
2023/08/28 04:20:43;;;;;;;21.00;6.20;;;;;;;20.79;48.55;93535.56;5013855;28;20048;-79
2023/08/28 04:23:09;;;;;;;21.98;5.93;;;;;;;20.79;48.42;93527.47;5010654;28;20428;-79
2023/08/28 04:25:34;;;;;;;15.13;5.40;;;;;;;20.30;48.37;93449.81;5011078;28;20072;-79
2023/08/28 04:28:00;;;;;;;7.18;4.95;;;;;;;20.78;48.50;93515.09;5012855;28;20036;-79
2023/08/28 04:30:25;;;;;;;8.35;5.43;;;;;;;20.87;48.56;93526.38;5010057;28;20501;-79
2023/08/28 04:32:50;;;;;;;9.60;5.50;;;;;;;20.86;47.95;93525.56;5011086;28;20046;-79
2023/08/28 04:35:16;;;;;;;7.15;5.25;;;;;;;20.77;47.57;93500.06;5010207;28;20034;-78
2023/08/28 04:37:41;;;;;;;10.60;5.10;;;;;;;20.98;47.71;93530.59;5012373;28;20042;-79
2023/08/28 04:40:08;;;;;;;9.40;5.30;;;;;;;21.00;47.07;93530.22;5014557;28;20532;-80
2023/08/28 04:42:33;;;;;;;7.30;5.57;;;;;;;21.11;47.07;93533.72;5011310;28;20036;-78
2023/08/28 04:44:59;;;;;;;10.80;5.90;;;;;;;21.20;46.23;93542.22;5014384;28;20042;-80
2023/08/28 04:47:25;;;;;;;9.77;7.10;;;;;;;21.23;46.12;93532.53;5019005;28;20037;-79
2023/08/28 04:49:50;;;;;;;10.80;6.03;;;;;;;21.35;45.92;93541.06;5019411;28;20084;-79
2023/08/28 04:52:16;;;;;;;27.13;7.45;;;;;;;21.39;45.86;93547.22;5011927;28;20068;-80
2023/08/28 04:54:42;;;;;;;38.28;8.93;;;;;;;21.42;45.51;93535.63;5020017;28;20349;-78
2023/08/28 04:57:07;;;;;;;19.67;6.95;;;;;;;21.54;45.17;93558.81;5012343;28;20034;-79
2023/08/28 04:59:33;;;;;;;25.45;7.80;;;;;;;21.61;45.48;93549.97;5011212;28;20033;-78
2023/08/28 05:01:59;;;;;;;18.27;6.65;;;;;;;21.67;45.16;93561.91;5011221;28;20030;-78
2023/08/28 05:04:24;;;;;;;13.10;7.63;;;;;;;21.63;45.35;93534.09;5019398;28;20095;-79
2023/08/28 05:06:50;;;;;;;16.00;6.85;;;;;;;21.63;45.02;93534.09;5011898;28;20033;-79
2023/08/28 05:09:15;;;;;;;13.85;6.85;;;;;;;21.63;45.23;93531.38;5013500;28;20282;-79
2023/08/28 05:11:40;;;;;;;13.45;7.35;;;;;;;21.81;44.99;93524.75;5012638;28;20044;-80
2023/08/28 05:14:06;;;;;;;9.40;7.35;;;;;;;21.99;44.96;93534.78;5016133;28;20041;-79
2023/08/28 05:16:32;;;;;;;11.90;7.90;;;;;;;21.91;44.56;93520.47;5011142;28;20441;-79
2023/08/28 05:18:57;;;;;;;15.32;7.57;;;;;;;21.99;44.18;93534.78;5011830;28;20037;-78
2023/08/28 05:21:23;;;;;;;12.10;6.82;;;;;;;22.08;45.05;93533.19;5010150;28;20880;-78
2023/08/28 05:23:48;;;;;;;11.35;6.97;;;;;;;22.06;45.66;93524.69;5013623;28;20045;-80
2023/08/28 05:26:14;;;;;;;15.48;7.38;;;;;;;22.12;45.16;93522.34;5011284;28;20045;-79
2023/08/28 05:28:40;;;;;;;7.38;6.60;;;;;;;22.21;44.40;93523.50;5013855;28;20360;-79
2023/08/28 05:31:05;;;;;;;13.88;8.45;;;;;;;22.23;44.52;93526.59;5020632;28;20057;-78
2023/08/28 05:33:32;;;;;;;19.63;8.32;;;;;;;21.74;44.97;93453.66;5012630;28;20053;-79
2023/08/28 05:35:57;;;;;;;15.35;7.45;;;;;;;22.33;45.02;93535.06;5017487;28;20041;-79
2023/08/28 05:38:23;;;;;;;13.40;7.25;;;;;;;22.06;44.09;93508.44;5017669;28;20604;-80
2023/08/28 05:40:48;;;;;;;14.95;7.47;;;;;;;22.34;44.24;93544.75;5016587;28;20037;-78
2023/08/28 05:43:14;;;;;;;11.88;7.15;;;;;;;22.28;45.08;93525.41;5025320;28;20042;-78
2023/08/28 05:45:39;;;;;;;12.10;7.63;;;;;;;22.28;44.88;93526.19;5014681;28;20100;-79
2023/08/28 05:48:05;;;;;;;18.48;8.38;;;;;;;22.18;45.79;93529.69;5016612;28;20485;-80
2023/08/28 05:50:30;;;;;;;11.18;6.95;;;;;;;22.10;46.22;93514.59;5015600;28;20037;-79
2023/08/28 05:52:56;;;;;;;13.25;7.43;;;;;;;22.48;44.52;93520.28;5018264;28;20066;-79
2023/08/28 05:55:22;;;;;;;10.00;7.07;;;;;;;22.58;44.61;93511.34;5014636;28;20041;-79
2023/08/28 05:57:47;;;;;;;9.18;6.20;;;;;;;22.72;43.96;93522.09;5015467;28;20033;-79
2023/08/28 06:00:14;;;;;;;8.82;6.97;;;;;;;22.43;44.75;93482.78;5013793;28;20038;-79
2023/08/28 06:02:40;;;;;;;9.65;6.50;;;;;;;22.64;43.41;93490.75;5016401;28;20316;-79
2023/08/28 06:05:06;;;;;;;13.02;7.20;;;;;;;22.88;43.51;93511.53;5014099;28;20139;-79
2023/08/28 06:07:31;;;;;;;13.02;6.88;;;;;;;23.02;43.41;93525.03;5030280;28;20030;-79
2023/08/28 06:09:57;;;;;;;12.65;6.57;;;;;;;22.98;43.87;93518.06;5014401;28;20037;-79
2023/08/28 06:12:22;;;;;;;14.65;7.75;;;;;;;22.99;43.63;93508.75;5015641;28;20477;-78
2023/08/28 06:14:48;;;;;;;8.25;6.22;;;;;;;23.11;42.86;93516.44;5011346;28;20049;-79
2023/08/28 06:17:13;;;;;;;11.90;7.63;;;;;;;23.26;43.14;93536.06;5016540;28;20045;-80
2023/08/28 06:19:39;;;;;;;12.55;6.82;;;;;;;23.25;41.88;93531.81;5013805;28;20124;-78
2023/08/28 06:22:04;;;;;;;13.98;6.63;;;;;;;23.28;42.21;93545.34;5021708;28;20021;-79
2023/08/28 06:24:31;;;;;;;10.23;7.03;;;;;;;23.32;42.08;93548.06;5026757;28;20091;-78
2023/08/28 06:26:57;;;;;;;10.00;7.03;;;;;;;23.31;41.59;93546.50;5015346;28;20511;-80
2023/08/28 06:29:22;;;;;;;11.38;6.93;;;;;;;23.38;42.04;93551.84;5012971;28;20046;-78
2023/08/28 06:31:47;;;;;;;12.02;6.88;;;;;;;23.43;41.83;93548.72;5020923;28;20044;-79
2023/08/28 06:34:14;;;;;;;11.02;5.88;;;;;;;23.34;42.69;93534.84;5015077;28;20045;-79
2023/08/28 06:36:40;;;;;;;9.98;6.53;;;;;;;23.30;43.17;93529.44;5017379;28;20087;-80
2023/08/28 06:39:05;;;;;;;12.38;6.95;;;;;;;23.32;43.24;93537.19;5015085;28;20037;-78
2023/08/28 06:41:31;;;;;;;12.93;6.35;;;;;;;23.46;42.23;93524.28;5015224;28;20084;-79
2023/08/28 06:43:56;;;;;;;11.35;6.25;;;;;;;23.67;41.80;93541.53;5015481;28;20069;-79
2023/08/28 06:46:22;;;;;;;15.52;7.05;;;;;;;23.68;40.65;93527.56;5014233;28;20101;-79
2023/08/28 06:48:51;;;;;;;14.48;6.57;;;;;;;23.68;40.47;93543.88;5015297;28;20034;-78
2023/08/28 06:51:17;;;;;;;9.60;6.40;;;;;;;23.79;40.90;93533.69;5015275;28;20065;-79
2023/08/28 06:53:42;;;;;;;8.88;6.78;;;;;;;23.71;42.17;93537.63;5020882;28;21098;-79
2023/08/28 06:56:08;;;;;;;10.85;7.22;;;;;;;23.76;42.16;93529.03;5014165;28;20034;-79
2023/08/28 06:58:33;;;;;;;11.15;6.03;;;;;;;23.93;41.63;93530.81;5014691;28;20030;-79
2023/08/28 07:00:58;;;;;;;12.85;7.25;;;;;;;24.06;40.58;93546.56;5013452;28;20036;-79
2023/08/28 07:03:24;;;;;;;13.93;6.30;;;;;;;24.04;40.60;93538.09;5013778;28;20028;-79
2023/08/28 07:05:49;;;;;;;10.68;6.45;;;;;;;24.06;41.77;93546.56;5015794;28;20041;-79
2023/08/28 07:08:15;;;;;;;11.63;6.22;;;;;;;24.22;41.15;93536.72;5013149;28;20045;-79
2023/08/28 07:10:42;;;;;;;13.07;6.57;;;;;;;24.35;39.76;93539.66;5013497;28;20064;-79
2023/08/28 07:13:08;;;;;;;9.90;5.95;;;;;;;24.40;40.29;93540.00;5012424;28;20525;-79
2023/08/28 07:15:33;;;;;;;8.00;6.47;;;;;;;24.53;39.77;93545.69;5014077;28;20025;-79
2023/08/28 07:17:58;;;;;;;11.70;7.07;;;;;;;24.54;39.70;93541.00;5010087;28;20303;-80
2023/08/28 07:20:24;;;;;;;11.60;6.72;;;;;;;24.49;39.54;93544.97;5014350;28;20056;-79
2023/08/28 07:22:51;;;;;;;13.55;6.38;;;;;;;24.50;40.05;93538.31;5015508;28;20137;-80
2023/08/28 07:25:21;;;;;;;13.32;7.40;;;;;;;24.47;40.78;93541.09;5013679;28;20087;-80
2023/08/28 07:27:47;;;;;;;16.38;7.70;;;;;;;24.57;40.38;93543.69;5017106;28;20132;-78
2023/08/28 07:30:12;;;;;;;12.70;7.90;;;;;;;24.67;40.10;93531.91;5015785;28;20113;-77
2023/08/28 07:32:37;;;;;;;9.55;7.10;;;;;;;24.80;39.34;93540.28;5012467;28;20580;-78
2023/08/28 07:35:05;;;;;;;13.07;8.05;;;;;;;24.81;38.89;93552.72;5014136;28;20037;-79
2023/08/28 07:37:33;;;;;;;16.55;6.63;;;;;;;24.67;38.85;93542.78;5013285;28;20723;-79
2023/08/28 07:39:58;;;;;;;13.00;7.40;;;;;;;24.71;39.40;93542.72;5010804;28;20093;-78
2023/08/28 07:42:24;;;;;;;12.45;6.95;;;;;;;24.61;40.39;93549.06;5012001;28;20128;-77
2023/08/28 07:44:50;;;;;;;11.20;6.63;;;;;;;24.66;39.77;93529.56;5013893;28;20042;-79
2023/08/28 07:47:16;;;;;;;9.57;7.18;;;;;;;24.81;40.22;93531.72;5012050;28;20037;-78
2023/08/28 07:49:43;;;;;;;16.13;6.68;;;;;;;24.93;39.82;93543.22;5010333;28;20188;-79
2023/08/28 07:52:08;;;;;;;11.88;6.40;;;;;;;24.95;39.39;93540.84;5011330;28;20025;-78
2023/08/28 07:54:33;;;;;;;16.83;7.50;;;;;;;25.00;38.36;93537.66;5012567;28;20024;-78
2023/08/28 07:56:59;;;;;;;14.63;6.63;;;;;;;25.01;38.67;93536.50;5012232;28;20565;-79
2023/08/28 07:59:24;;;;;;;10.15;5.75;;;;;;;25.08;39.32;93552.69;5013705;28;20033;-78
2023/08/28 08:01:50;;;;;;;13.23;6.35;;;;;;;25.09;38.83;93552.31;5011223;28;20041;-78
2023/08/28 08:04:15;;;;;;;9.10;6.13;;;;;;;25.18;39.60;93551.78;5014403;28;20042;-78
2023/08/28 08:06:41;;;;;;;12.90;5.97;;;;;;;25.22;38.62;93561.41;5013099;28;20029;-79
2023/08/28 08:09:06;;;;;;;14.00;6.47;;;;;;;25.16;38.19;93541.31;5013370;28;20038;-76
2023/08/28 08:11:32;;;;;;;13.43;6.28;;;;;;;24.81;39.04;93501.03;5018339;28;20157;-78
2023/08/28 08:13:58;;;;;;;10.95;6.07;;;;;;;25.10;39.15;93542.19;5014318;28;20038;-78
2023/08/28 08:16:24;;;;;;;13.48;7.18;;;;;;;24.64;39.61;93505.50;5009446;28;20408;-78
2023/08/28 08:18:49;;;;;;;12.18;6.75;;;;;;;25.01;39.25;93540.00;5012905;28;20029;-77
2023/08/28 08:21:15;;;;;;;19.10;6.43;;;;;;;25.07;38.45;93529.41;5014374;28;20079;-78
2023/08/28 08:23:41;;;;;;;14.05;6.07;;;;;;;25.27;39.21;93541.16;5017598;28;20492;-78
2023/08/28 08:26:07;;;;;;;11.85;6.15;;;;;;;25.29;38.89;93534.09;5011726;28;20496;-78
2023/08/28 08:28:32;;;;;;;10.48;6.30;;;;;;;25.31;39.00;93528.28;5012328;28;20544;-78
2023/08/28 08:30:58;;;;;;;16.58;6.32;;;;;;;25.45;38.60;93536.22;5013723;28;20049;-78
2023/08/28 08:33:23;;;;;;;18.38;6.88;;;;;;;25.48;39.14;93524.50;5013473;28;20112;-78
2023/08/28 08:35:49;;;;;;;11.50;6.10;;;;;;;25.62;38.64;93535.13;5012844;28;20687;-78
2023/08/28 08:38:14;;;;;;;9.48;5.80;;;;;;;25.50;38.35;93515.91;5012242;28;20021;-78
2023/08/28 08:40:40;;;;;;;12.60;6.20;;;;;;;25.51;38.31;93526.41;5013071;28;20042;-78
2023/08/28 08:43:06;;;;;;;12.75;6.47;;;;;;;25.59;37.89;93535.97;5013717;28;20028;-78
2023/08/28 08:45:37;;;;;;;13.40;5.72;;;;;;;25.57;38.39;93527.44;5012681;28;20133;-78
2023/08/28 08:48:06;;;;;;;9.63;5.90;;;;;;;25.59;38.66;93530.53;5020106;28;20038;-79
2023/08/28 08:50:35;;;;;;;10.50;6.15;;;;;;;25.69;38.36;93526.09;5008822;28;20043;-78
2023/08/28 08:53:06;;;;;;;10.88;6.43;;;;;;;25.69;39.44;93521.41;5011605;28;20038;-79
2023/08/28 08:55:41;;;;;;;9.73;6.40;;;;;;;25.74;38.67;93512.00;5010607;28;20097;-79
2023/08/28 08:58:10;;;;;;;14.20;6.10;;;;;;;25.80;37.15;93501.38;5019516;28;20029;-76
2023/08/28 09:00:38;;;;;;;8.10;6.55;;;;;;;25.84;37.91;93497.41;5011896;28;20121;-78
2023/08/28 09:03:07;;;;;;;12.35;6.28;;;;;;;25.83;37.64;93495.88;5009641;28;20360;-78
2023/08/28 09:05:34;;;;;;;12.50;6.45;;;;;;;25.97;37.11;93494.84;5011562;28;20033;-78
2023/08/28 09:07:59;;;;;;;12.50;7.18;;;;;;;26.07;37.59;93496.59;5011668;28;20068;-78
2023/08/28 09:10:25;;;;;;;9.57;6.00;;;;;;;26.19;37.97;93496.00;5016607;28;20179;-78
2023/08/28 09:12:51;;;;;;;15.60;6.75;;;;;;;26.08;36.94;93470.91;5010849;28;20034;-78
2023/08/28 09:15:17;;;;;;;8.48;6.78;;;;;;;26.26;37.00;93497.78;5008872;28;20546;-78
2023/08/28 09:17:43;;;;;;;10.75;6.63;;;;;;;26.11;36.18;93480.97;5011937;28;20135;-77
2023/08/28 09:20:21;;;;;;;12.23;5.43;;;;;;;26.25;36.32;93488.84;5011871;28;20041;-78
2023/08/28 09:22:49;;;;;;;9.93;5.95;;;;;;;26.26;36.45;93467.81;5014069;28;20037;-78
2023/08/28 09:25:19;;;;;;;10.10;5.60;;;;;;;26.47;37.40;93479.06;5020271;28;20972;-78
2023/08/28 09:27:45;;;;;;;9.90;5.22;;;;;;;26.63;36.61;93477.59;5013492;28;20040;-78
2023/08/28 09:30:32;;;;;;;7.88;5.47;;;;;;;26.67;35.64;93475.53;5011019;28;20429;-78
2023/08/28 09:33:00;;;;;;;8.05;5.00;;;;;;;26.71;34.98;93462.59;5011891;28;20649;-78
2023/08/28 09:35:34;;;;;;;10.95;5.22;;;;;;;26.69;34.63;93470.44;5027197;28;20029;-77
2023/08/28 09:38:00;;;;;;;24.95;6.35;;;;;;;26.61;35.00;93445.28;5017610;28;20033;-79
2023/08/28 09:40:35;;;;;;;9.40;6.53;;;;;;;26.92;35.39;93471.06;5009768;28;20100;-78
2023/08/28 09:43:08;;;;;;;5.85;5.05;;;;;;;26.88;34.87;93445.06;5009709;28;20040;-78
2023/08/28 09:45:33;;;;;;;5.68;4.60;;;;;;;27.00;34.05;93444.38;5011593;28;20018;-78
2023/08/28 09:48:03;;;;;;;7.95;5.50;;;;;;;27.18;34.23;93455.63;5011707;28;20034;-78
2023/08/28 09:50:29;;;;;;;6.32;4.93;;;;;;;27.17;35.13;93432.28;5009562;28;20038;-78
2023/08/28 09:53:05;;;;;;;6.70;4.88;;;;;;;27.30;32.79;93440.53;5012883;28;20514;-78
2023/08/28 09:55:30;;;;;;;9.48;4.72;;;;;;;27.29;32.96;93441.72;5006702;28;20030;-79
2023/08/28 09:57:56;;;;;;;9.20;5.15;;;;;;;27.11;32.88;93419.56;5011649;28;20021;-77
2023/08/28 10:00:21;;;;;;;8.20;4.93;;;;;;;27.31;33.22;93429.19;5009831;28;20711;-78
2023/08/28 10:02:47;;;;;;;10.77;5.30;;;;;;;27.37;33.12;93435.66;5018453;28;20033;-79
2023/08/28 10:05:14;;;;;;;6.07;4.90;;;;;;;27.36;32.60;93427.91;5010411;28;20124;-78
2023/08/28 10:07:44;;;;;;;8.10;4.22;;;;;;;27.37;31.98;93424.72;5010955;28;20056;-78
2023/08/28 10:10:14;;;;;;;8.75;4.18;;;;;;;27.45;31.75;93430.78;5011737;28;20052;-78
2023/08/28 10:12:40;;;;;;;8.73;5.50;;;;;;;27.54;32.51;93427.44;5021168;28;20024;-78
2023/08/28 10:15:07;;;;;;;7.63;4.35;;;;;;;27.70;33.68;93425.47;5009770;28;20048;-79
2023/08/28 10:17:34;;;;;;;8.35;4.15;;;;;;;27.85;32.04;93420.38;5010873;28;20041;-78
2023/08/28 10:20:02;;;;;;;6.57;4.47;;;;;;;27.81;32.37;93412.28;5010300;28;20037;-78
2023/08/28 10:22:30;;;;;;;9.00;4.22;;;;;;;27.68;31.57;93400.53;5021694;28;20921;-77
2023/08/28 10:24:57;;;;;;;6.93;4.32;;;;;;;27.79;31.78;93411.19;5021881;28;20029;-78
2023/08/28 10:27:23;;;;;;;11.02;4.70;;;;;;;27.74;31.42;93411.72;5012537;28;20022;-79
2023/08/28 10:29:49;;;;;;;7.88;4.72;;;;;;;27.76;31.36;93403.88;5021334;28;20060;-78
2023/08/28 10:32:15;;;;;;;9.30;4.22;;;;;;;27.83;31.46;93406.38;5015837;28;20038;-79
2023/08/28 10:34:44;;;;;;;10.43;4.88;;;;;;;27.53;31.16;93398.59;5012890;28;20347;-78
2023/08/28 10:37:12;;;;;;;8.18;4.63;;;;;;;27.77;31.44;93391.72;5012965;28;20053;-77
2023/08/28 10:39:40;;;;;;;8.65;4.50;;;;;;;27.85;32.15;93392.28;5013593;28;20072;-78
2023/08/28 10:42:08;;;;;;;10.40;5.38;;;;;;;27.85;31.03;93393.06;5012613;28;20044;-78
2023/08/28 10:44:35;;;;;;;6.38;4.93;;;;;;;27.99;31.85;93379.00;5013829;28;20502;-78
2023/08/28 10:47:01;;;;;;;13.48;5.35;;;;;;;27.99;31.78;93375.50;5016593;28;20052;-79
2023/08/28 10:49:27;;;;;;;7.43;4.45;;;;;;;28.09;31.84;93363.50;5013516;28;20045;-78
2023/08/28 10:52:05;;;;;;;8.98;4.68;;;;;;;28.18;30.92;93367.13;5012611;28;20021;-78
2023/08/28 10:54:43;;;;;;;7.75;4.97;;;;;;;28.12;30.88;93368.09;5015904;28;20017;-78
2023/08/28 10:57:21;;;;;;;9.57;4.82;;;;;;;28.15;30.85;93368.03;5019715;28;20904;-78
2023/08/28 10:59:46;;;;;;;5.28;4.00;;;;;;;28.40;29.96;93366.50;5014171;28;20160;-78
2023/08/28 11:02:12;;;;;;;8.40;4.60;;;;;;;28.35;30.37;93356.09;5014133;28;20048;-78
2023/08/28 11:04:39;;;;;;;10.48;5.05;;;;;;;28.46;30.40;93360.03;5014035;28;20033;-78
2023/08/28 11:07:08;;;;;;;9.15;4.55;;;;;;;28.33;30.23;93355.75;5015680;28;20022;-79
2023/08/28 11:09:35;;;;;;;6.00;3.88;;;;;;;28.27;29.95;93358.28;5029398;28;20045;-78
2023/08/28 11:12:01;;;;;;;9.15;4.68;;;;;;;28.50;30.62;93354.47;5014484;28;20053;-78
2023/08/28 11:14:30;;;;;;;6.90;4.37;;;;;;;28.63;31.97;93369.69;5014842;28;20033;-78
2023/08/28 11:17:05;;;;;;;6.43;4.65;;;;;;;28.63;31.67;93353.28;5020832;28;20684;-77
2023/08/28 11:19:31;;;;;;;5.47;3.70;;;;;;;28.55;29.16;93345.69;5012763;28;20065;-77
2023/08/28 11:21:59;;;;;;;5.30;3.45;;;;;;;28.22;29.17;93334.97;5013805;28;20041;-78
2023/08/28 11:24:26;;;;;;;6.80;4.05;;;;;;;28.28;29.01;93343.41;5013418;28;20143;-78
2023/08/28 11:26:52;;;;;;;7.10;3.85;;;;;;;28.32;29.28;93327.66;5013581;28;20397;-79